Time;durP1;ratioP1;P1;durP2;ratioP2;P2;SDS_P1;SDS_P2;PMS_P1;PMS_P2;Temp;Humidity;BMP_temperature;BMP_pressure;BME280_temperature;BME280_humidity;BME280_pressure;Samples;Min_cycle;Max_cycle;Signal;HPM_P1;HPM_P2
2023/08/31 00:00:51;;;;;;;;;;;;;;;19.36;80.18;94704.06;5093757;28;1261;-57
2023/08/31 00:03:17;;;;;;;;;;;;;;;19.34;79.83;94710.78;5093299;28;1413;-58
2023/08/31 00:05:43;;;;;;;;;;;;;;;19.48;78.98;94710.41;5101143;28;1084;-57
2023/08/31 00:08:11;;;;;;;;;;;;;;;19.40;79.20;94707.16;5114454;28;1902;-57
2023/08/31 00:10:38;;;;;;;;;;;;;;;19.39;79.29;94703.63;5114336;28;1132;-57
2023/08/31 00:13:06;;;;;;;;;;;;;;;19.35;80.06;94707.84;5095981;28;1158;-57
2023/08/31 00:15:35;;;;;;;;;;;;;;;19.38;78.76;94715.50;5114062;28;1040;-57
2023/08/31 00:18:03;;;;;;;;;;;;;;;19.34;79.47;94722.44;5114083;28;1028;-57
2023/08/31 00:20:30;;;;;;;;;;;;;;;19.26;78.42;94718.13;5113828;28;1154;-57
2023/08/31 00:22:56;;;;;;;;;;;;;;;19.11;79.97;94720.41;5113729;28;1033;-57
2023/08/31 00:25:22;;;;;;;;;;;;;;;18.99;81.12;94714.03;5114036;28;950;-57
2023/08/31 00:27:48;;;;;;;;;;;;;;;19.04;80.25;94714.22;5113822;28;1917;-57
2023/08/31 00:30:14;;;;;;;;;;;;;;;19.20;79.67;94718.19;5113815;28;1209;-57
2023/08/31 00:32:42;;;;;;;;;;;;;;;19.14;78.30;94714.50;5113913;28;1280;-57
2023/08/31 00:35:08;;;;;;;;;;;;;;;18.99;79.51;94708.63;5113843;28;1033;-57
2023/08/31 00:37:35;;;;;;;;;;;;;;;18.81;81.69;94714.88;5114039;28;1037;-57
2023/08/31 00:40:01;;;;;;;;;;;;;;;18.68;82.19;94718.47;5113946;28;1043;-57
2023/08/31 00:42:29;;;;;;;;;;;;;;;18.58;82.80;94720.88;5112464;28;1202;-58
2023/08/31 00:44:55;;;;;;;;;;;;;;;18.73;81.33;94724.88;5113745;28;1123;-57
2023/08/31 00:47:21;;;;;;;;;;;;;;;18.80;80.68;94726.69;5113479;28;1910;-57
2023/08/31 00:49:47;;;;;;;;;;;;;;;18.80;81.05;94733.00;5113820;28;1092;-58
2023/08/31 00:52:13;;;;;;;;;;;;;;;18.78;82.83;94729.66;5113711;28;1111;-57
2023/08/31 00:54:42;;;;;;;;;;;;;;;18.51;83.53;94721.72;5113681;28;1113;-57
2023/08/31 00:57:08;;;;;;;;;;;;;;;18.45;83.21;94729.94;5114024;28;1055;-57
2023/08/31 00:59:34;;;;;;;;;;;;;;;18.32;83.05;94725.44;5113919;28;1080;-57
2023/08/31 01:02:06;;;;;;;;;;;;;;;18.43;82.32;94716.59;5113997;28;1072;-57
2023/08/31 01:04:46;;;;;;;;;;;;;;;18.52;82.09;94715.28;5113376;28;1238;-57
2023/08/31 01:07:31;;;;;;;;;;;;;;;18.56;81.78;94720.28;5113395;28;1984;-57
2023/08/31 01:10:05;;;;;;;;;;;;;;;18.50;83.02;94716.56;5113659;28;1056;-57
2023/08/31 01:12:47;;;;;;;;;;;;;;;18.36;84.02;94732.06;5113793;28;1041;-57
2023/08/31 01:15:13;;;;;;;;;;;;;;;18.01;85.78;94726.28;5113475;28;1034;-57
2023/08/31 01:17:52;;;;;;;;;;;;;;;17.86;85.78;94729.28;5113827;28;1037;-57
2023/08/31 01:20:28;;;;;;;;;;;;;;;17.85;86.40;94736.56;5113555;28;1059;-56
2023/08/31 01:22:57;;;;;;;;;;;;;;;17.89;84.64;94740.50;5113849;28;980;-57
2023/08/31 01:25:24;;;;;;;;;;;;;;;17.94;85.23;94743.34;5113175;28;1107;-57
2023/08/31 01:27:50;;;;;;;;;;;;;;;17.93;85.21;94738.19;5113549;28;1913;-57
2023/08/31 01:30:17;;;;;;;;;;;;;;;18.04;84.34;94737.50;5113509;28;1036;-57
2023/08/31 01:32:45;;;;;;;;;;;;;;;18.06;84.42;94746.22;5113421;28;1044;-57
2023/08/31 01:35:12;;;;;;;;;;;;;;;18.03;85.04;94743.94;5113045;28;1230;-57
2023/08/31 01:37:42;;;;;;;;;;;;;;;17.87;85.41;94749.84;5113577;28;991;-57
2023/08/31 01:40:20;;;;;;;;;;;;;;;17.63;87.14;94759.53;5113285;28;1040;-57
2023/08/31 01:42:50;;;;;;;;;;;;;;;17.70;86.95;94757.59;5113498;28;1051;-57
2023/08/31 01:45:20;;;;;;;;;;;;;;;17.85;85.09;94765.47;5112939;28;1032;-57
2023/08/31 01:47:46;;;;;;;;;;;;;;;17.88;83.59;94762.34;5113147;28;1996;-57
2023/08/31 01:50:12;;;;;;;;;;;;;;;17.96;84.72;94759.38;5113358;28;1070;-57
2023/08/31 01:52:38;;;;;;;;;;;;;;;18.01;84.29;94759.56;5113217;28;1876;-57
2023/08/31 01:55:05;;;;;;;;;;;;;;;18.11;83.49;94762.63;5116461;28;1095;-57
2023/08/31 01:57:32;;;;;;;;;;;;;;;17.86;84.81;94759.03;5117110;28;999;-57
2023/08/31 01:59:58;;;;;;;;;;;;;;;17.83;85.27;94759.41;5117143;28;965;-57
2023/08/31 02:02:24;;;;;;;;;;;;;;;18.01;83.74;94761.44;5116598;28;1076;-57
2023/08/31 02:04:53;;;;;;;;;;;;;;;17.84;85.01;94759.25;5116753;28;1219;-57
2023/08/31 02:07:19;;;;;;;;;;;;;;;17.62;85.14;94750.56;5116681;28;1909;-57
2023/08/31 02:09:45;;;;;;;;;;;;;;;17.78;84.53;94753.84;5116662;28;1036;-57
2023/08/31 02:12:11;;;;;;;;;;;;;;;17.90;84.05;94750.25;5116492;28;1236;-57
2023/08/31 02:14:37;;;;;;;;;;;;;;;17.85;84.37;94741.97;5116369;28;1212;-57
2023/08/31 02:17:04;;;;;;;;;;;;;;;17.78;84.84;94756.56;5116526;28;1083;-57
2023/08/31 02:19:30;;;;;;;;;;;;;;;17.68;85.51;94762.38;5116650;28;1120;-57
2023/08/31 02:21:56;;;;;;;;;;;;;;;17.81;83.60;94764.22;5116278;28;1154;-57
2023/08/31 02:24:21;;;;;;;;;;;;;;;17.99;84.11;94758.94;5116196;28;1276;-56
2023/08/31 02:26:48;;;;;;;;;;;;;;;18.32;82.07;94752.50;5116399;28;1000;-57
2023/08/31 02:29:14;;;;;;;;;;;;;;;18.11;83.69;94757.19;5116175;28;1898;-56
2023/08/31 02:31:41;;;;;;;;;;;;;;;18.02;84.38;94763.09;5116169;28;1036;-56
2023/08/31 02:34:07;;;;;;;;;;;;;;;18.22;83.61;94758.41;5116166;28;1079;-55
2023/08/31 02:36:33;;;;;;;;;;;;;;;18.33;83.45;94765.00;5116231;28;1136;-55
2023/08/31 02:38:59;;;;;;;;;;;;;;;18.33;83.45;94759.59;5116247;28;985;-57
2023/08/31 02:41:25;;;;;;;;;;;;;;;18.33;83.63;94755.00;5116047;28;984;-57
2023/08/31 02:43:51;;;;;;;;;;;;;;;18.20;84.65;94760.50;5116291;28;1039;-56
2023/08/31 02:46:17;;;;;;;;;;;;;;;18.09;85.42;94763.88;5115894;28;1194;-57
2023/08/31 02:48:44;;;;;;;;;;;;;;;18.04;85.25;94761.00;5116066;28;1910;-56
2023/08/31 02:51:10;;;;;;;;;;;;;;;18.12;85.09;94756.16;5116143;28;950;-57
2023/08/31 02:53:36;;;;;;;;;;;;;;;17.99;85.17;94758.13;5115980;28;1248;-57
2023/08/31 02:56:02;;;;;;;;;;;;;;;18.11;84.72;94754.50;5115591;28;1056;-57
2023/08/31 02:58:28;;;;;;;;;;;;;;;18.20;84.71;94754.25;5115605;28;1040;-57
2023/08/31 03:00:55;;;;;;;;;;;;;;;17.91;85.76;94761.91;5115618;28;1066;-57
2023/08/31 03:03:21;;;;;;;;;;;;;;;17.86;85.61;94759.84;5115524;28;1039;-57
2023/08/31 03:05:47;;;;;;;;;;;;;;;17.94;85.41;94756.06;5114529;28;1274;-57
2023/08/31 03:08:13;;;;;;;;;;;;;;;18.20;84.02;94756.97;5115368;28;1975;-57
2023/08/31 03:10:40;;;;;;;;;;;;;;;18.37;83.07;94758.09;5115757;28;1067;-57
2023/08/31 03:13:06;;;;;;;;;;;;;;;18.24;83.78;94750.06;5115440;28;965;-57
2023/08/31 03:15:33;;;;;;;;;;;;;;;18.39;83.55;94758.69;5134577;27;2493;-57
2023/08/31 03:18:00;;;;;;;;;;;;;;;18.36;84.25;94764.53;5136188;27;1067;-57
2023/08/31 03:20:25;;;;;;;;;;;;;;;18.09;85.58;94755.78;5135921;27;969;-57
2023/08/31 03:22:51;;;;;;;;;;;;;;;18.09;85.12;94770.13;5115351;28;1083;-58
2023/08/31 03:25:17;;;;;;;;;;;;;;;18.13;85.12;94770.50;5116341;27;3012;-57
2023/08/31 03:27:44;;;;;;;;;;;;;;;17.75;86.96;94771.31;5114774;28;1906;-58
2023/08/31 03:30:10;;;;;;;;;;;;;;;17.59;87.38;94778.03;5114909;28;1127;-58
2023/08/31 03:32:36;;;;;;;;;;;;;;;17.53;87.20;94784.31;5115165;28;1020;-57
2023/08/31 03:35:03;;;;;;;;;;;;;;;17.41;88.50;94792.22;5115169;28;1267;-57
2023/08/31 03:37:29;;;;;;;;;;;;;;;17.44;88.36;94796.38;5114779;28;1003;-56
2023/08/31 03:39:55;;;;;;;;;;;;;;;17.44;88.38;94804.50;5096606;28;1052;-55
2023/08/31 03:42:21;;;;;;;;;;;;;;;17.32;89.67;94804.28;5114659;28;1052;-58
2023/08/31 03:44:47;;;;;;;;;;;;;;;17.34;88.51;94803.06;5114625;28;1044;-58
2023/08/31 03:47:13;;;;;;;;;;;;;;;17.68;85.92;94806.50;5114406;28;1902;-57
2023/08/31 03:49:39;;;;;;;;;;;;;;;17.42;87.75;94809.28;5114787;28;969;-57
2023/08/31 03:52:05;;;;;;;;;;;;;;;17.35;88.19;94820.09;5114616;28;980;-57
2023/08/31 03:54:31;;;;;;;;;;;;;;;17.45;87.73;94828.59;5114658;28;973;-57
2023/08/31 03:56:57;;;;;;;;;;;;;;;17.52;87.88;94836.69;5114553;28;1045;-57
2023/08/31 03:59:23;;;;;;;;;;;;;;;17.78;85.76;94824.97;5114265;28;1056;-57
2023/08/31 04:01:49;;;;;;;;;;;;;;;17.57;86.94;94820.69;5139054;27;2771;-57
2023/08/31 04:04:15;;;;;;;;;;;;;;;17.07;87.96;94820.34;5155844;27;1008;-56
2023/08/31 04:06:41;;;;;;;;;;;;;;;16.75;89.64;94830.91;5155468;27;1071;-56
2023/08/31 04:09:07;;;;;;;;;;;;;;;16.70;90.35;94830.72;5155413;27;1909;-57
2023/08/31 04:11:33;;;;;;;;;;;;;;;16.77;89.94;94826.16;5155497;27;1030;-57
2023/08/31 04:13:59;;;;;;;;;;;;;;;16.84;89.18;94836.97;5155724;27;1036;-57
2023/08/31 04:16:25;;;;;;;;;;;;;;;17.08;88.08;94835.53;5155308;27;1141;-56
2023/08/31 04:18:51;;;;;;;;;;;;;;;17.11;87.83;94837.78;5155452;27;1036;-56
2023/08/31 04:21:18;;;;;;;;;;;;;;;17.20;86.95;94841.13;5148242;27;1541;-56
2023/08/31 04:23:44;;;;;;;;;;;;;;;17.06;88.26;94849.22;5134799;27;977;-57
2023/08/31 04:26:11;;;;;;;;;;;;;;;16.88;87.81;94849.84;5134835;27;976;-56
2023/08/31 04:28:37;;;;;;;;;;;;;;;17.01;87.73;94859.81;5134549;27;2004;-56
2023/08/31 04:31:04;;;;;;;;;;;;;;;17.04;87.98;94855.88;5134943;27;1067;-59
2023/08/31 04:33:30;;;;;;;;;;;;;;;17.55;84.71;94860.59;5116449;28;1008;-56
2023/08/31 04:35:56;;;;;;;;;;;;;;;17.78;83.94;94848.47;5134716;27;961;-56
2023/08/31 04:38:22;;;;;;;;;;;;;;;18.00;83.05;94857.16;5134600;27;983;-57
2023/08/31 04:40:48;;;;;;;;;;;;;;;18.11;83.92;94848.38;5134408;27;1877;-58
2023/08/31 04:43:14;;;;;;;;;;;;;;;18.08;83.78;94865.88;5134268;27;1023;-58
2023/08/31 04:45:40;;;;;;;;;;;;;;;18.03;84.52;94864.84;5134584;27;1342;-58
2023/08/31 04:48:06;;;;;;;;;;;;;;;17.79;85.41;94869.06;5134479;28;1917;-57
2023/08/31 04:50:32;;;;;;;;;;;;;;;17.78;85.33;94864.69;5134145;28;1102;-57
2023/08/31 04:52:58;;;;;;;;;;;;;;;17.78;85.83;94868.22;5134364;28;947;-57
2023/08/31 04:55:25;;;;;;;;;;;;;;;17.95;85.57;94869.44;5134450;28;974;-56
2023/08/31 04:57:51;;;;;;;;;;;;;;;18.23;85.10;94871.00;5116004;28;1028;-57
2023/08/31 05:00:17;;;;;;;;;;;;;;;18.51;83.29;94862.50;5134426;28;970;-57
2023/08/31 05:02:43;;;;;;;;;;;;;;;18.77;82.01;94860.69;5134517;28;1079;-57
2023/08/31 05:05:09;;;;;;;;;;;;;;;18.88;82.80;94870.84;5134057;28;1237;-57
2023/08/31 05:07:35;;;;;;;;;;;;;;;19.07;81.73;94869.03;5134326;28;1998;-57
2023/08/31 05:10:01;;;;;;;;;;;;;;;19.15;80.02;94870.63;5134142;28;1110;-58
2023/08/31 05:12:27;;;;;;;;;;;;;;;19.24;79.68;94872.03;5134003;28;1024;-57
2023/08/31 05:14:53;;;;;;;;;;;;;;;19.34;81.01;94878.81;5134037;28;1114;-57
2023/08/31 05:17:21;;;;;;;;;;;;;;;19.12;82.28;94876.47;5134008;28;1048;-57
2023/08/31 05:19:47;;;;;;;;;;;;;;;18.91;82.76;94867.72;5134253;28;977;-57
2023/08/31 05:22:13;;;;;;;;;;;;;;;18.92;83.62;94872.06;5133868;28;1165;-57
2023/08/31 05:24:39;;;;;;;;;;;;;;;19.21;82.46;94877.88;5134183;28;1052;-57
2023/08/31 05:27:05;;;;;;;;;;;;;;;19.55;78.70;94869.44;5134193;28;1991;-57
2023/08/31 05:29:31;;;;;;;;;;;;;;;19.61;78.93;94871.25;5136478;27;1035;-57
2023/08/31 05:31:57;;;;;;;;;;;;;;;19.70;78.44;94878.88;5138167;27;1039;-57
2023/08/31 05:34:24;;;;;;;;;;;;;;;19.94;76.26;94884.50;5137878;27;1091;-57
2023/08/31 05:36:50;;;;;;;;;;;;;;;20.19;75.42;94889.03;5138000;27;984;-56
2023/08/31 05:39:16;;;;;;;;;;;;;;;20.45;73.94;94895.97;5137822;27;947;-56
2023/08/31 05:41:43;;;;;;;;;;;;;;;20.65;73.79;94904.72;5137854;27;968;-57
2023/08/31 05:44:09;;;;;;;;;;;;;;;20.70;73.34;94892.34;5137940;27;975;-56
2023/08/31 05:46:35;;;;;;;;;;;;;;;20.90;72.10;94898.31;5137668;27;1031;-56
2023/08/31 05:49:01;;;;;;;;;;;;;;;20.95;72.79;94895.75;5137861;27;1910;-56
2023/08/31 05:51:27;;;;;;;;;;;;;;;20.75;72.67;94906.06;5137459;27;1103;-57
2023/08/31 05:53:53;;;;;;;;;;;;;;;20.62;73.25;94896.22;5137573;27;1114;-56
2023/08/31 05:56:19;;;;;;;;;;;;;;;20.59;73.66;94904.81;5137425;27;1070;-57
2023/08/31 05:58:45;;;;;;;;;;;;;;;20.58;71.45;94905.84;5137760;27;974;-57
2023/08/31 06:01:11;;;;;;;;;;;;;;;20.50;72.48;94904.28;5137532;27;975;-57
2023/08/31 06:03:37;;;;;;;;;;;;;;;20.60;72.85;94909.19;5137652;27;981;-57
2023/08/31 06:06:03;;;;;;;;;;;;;;;20.79;71.16;94918.97;5127249;27;1210;-57
2023/08/31 06:08:30;;;;;;;;;;;;;;;20.88;71.10;94921.38;5116655;28;1901;-57
2023/08/31 06:10:56;;;;;;;;;;;;;;;21.20;69.38;94928.19;5116960;28;1048;-57
2023/08/31 06:13:22;;;;;;;;;;;;;;;21.37;66.90;94922.91;5116498;28;1115;-57
2023/08/31 06:15:48;;;;;;;;;;;;;;;21.76;67.38;94933.38;5116878;28;1200;-57
2023/08/31 06:18:14;;;;;;;;;;;;;;;21.72;65.52;94933.03;5116573;28;1032;-57
2023/08/31 06:20:40;;;;;;;;;;;;;;;21.91;66.30;94941.91;5114684;28;1149;-57
2023/08/31 06:23:06;;;;;;;;;;;;;;;22.03;66.44;94948.16;5096319;28;1035;-56
2023/08/31 06:25:32;;;;;;;;;;;;;;;22.22;65.79;94942.59;5095880;28;1016;-56
2023/08/31 06:27:58;;;;;;;;;;;;;;;22.49;63.41;94947.53;5097652;28;2476;-57
2023/08/31 06:30:24;;;;;;;;;;;;;;;22.73;64.25;94948.31;5135685;27;2986;-57
2023/08/31 06:32:50;;;;;;;;;;;;;;;22.66;66.77;94948.44;5136671;27;1096;-56
2023/08/31 06:35:16;;;;;;;;;;;;;;;22.67;62.74;94950.09;5136561;27;1028;-56
2023/08/31 06:37:43;;;;;;;;;;;;;;;22.65;62.66;94944.06;5118299;27;1083;-56
2023/08/31 06:40:09;;;;;;;;;;;;;;;22.68;61.97;94948.19;5135338;27;1178;-57
2023/08/31 06:42:36;;;;;;;;;;;;;;;22.93;61.52;94948.69;5136679;27;1033;-56
2023/08/31 06:45:03;;;;;;;;;;;;;;;23.22;60.13;94948.72;5112531;27;1134;-57
2023/08/31 06:47:29;;;;;;;;;;;;;;;23.17;62.02;94948.63;5095596;28;1902;-55
2023/08/31 06:49:55;;;;;;;;;;;;;;;23.35;61.60;94947.56;5095540;28;1041;-57
2023/08/31 06:52:21;;;;;;;;;;;;;;;23.69;62.24;94945.69;5095424;28;996;-56
2023/08/31 06:54:47;;;;;;;;;;;;;;;24.00;60.84;94950.81;5095885;28;1308;-56
2023/08/31 06:57:13;;;;;;;;;;;;;;;24.14;59.02;94949.41;5077262;28;1028;-57
2023/08/31 06:59:40;;;;;;;;;;;;;;;24.19;59.86;94944.03;5095460;28;1004;-58
2023/08/31 07:02:06;;;;;;;;;;;;;;;24.23;56.68;94950.63;5095445;28;999;-57
2023/08/31 07:04:32;;;;;;;;;;;;;;;24.42;57.52;94950.34;5095344;28;962;-57
2023/08/31 07:06:58;;;;;;;;;;;;;;;24.46;56.32;94948.75;5113076;28;1081;-56
2023/08/31 07:09:24;;;;;;;;;;;;;;;24.48;58.72;94952.06;5115256;28;1917;-57
2023/08/31 07:11:50;;;;;;;;;;;;;;;24.73;57.16;94952.41;5115616;28;1064;-57
2023/08/31 07:14:16;;;;;;;;;;;;;;;24.72;55.66;94953.50;5115256;28;1017;-56
2023/08/31 07:16:42;;;;;;;;;;;;;;;24.78;54.97;94951.66;5115678;28;1116;-56
2023/08/31 07:19:09;;;;;;;;;;;;;;;24.67;57.93;94955.34;5115470;28;1045;-57
2023/08/31 07:21:35;;;;;;;;;;;;;;;24.70;57.32;94952.94;5115428;28;1224;-57
2023/08/31 07:24:01;;;;;;;;;;;;;;;24.89;57.08;94960.78;5115266;28;973;-57
2023/08/31 07:26:27;;;;;;;;;;;;;;;25.19;55.34;94970.41;5114587;27;2172;-57
2023/08/31 07:28:53;;;;;;;;;;;;;;;25.20;55.92;94969.34;5116891;27;2767;-55
2023/08/31 07:31:19;;;;;;;;;;;;;;;25.18;55.47;94971.53;5115150;28;1020;-57
2023/08/31 07:33:45;;;;;;;;;;;;;;;25.11;53.79;94968.97;5114977;28;1126;-55
2023/08/31 07:36:11;;;;;;;;;;;;;;;25.20;54.79;94966.63;5114972;28;1068;-55
2023/08/31 07:38:37;;;;;;;;;;;;;;;25.47;53.82;94970.19;5114808;28;1211;-56
2023/08/31 07:41:04;;;;;;;;;;;;;;;25.86;54.52;94961.78;5114822;28;1043;-54
2023/08/31 07:43:30;;;;;;;;;;;;;;;26.03;50.26;94969.88;5114924;28;1040;-56
2023/08/31 07:45:56;;;;;;;;;;;;;;;26.16;51.35;94965.88;5115013;28;1277;-56
2023/08/31 07:48:23;;;;;;;;;;;;;;;26.25;50.82;94967.00;5114512;28;1917;-56
2023/08/31 07:50:49;;;;;;;;;;;;;;;26.26;50.81;94968.66;5114622;28;1048;-56
2023/08/31 07:53:15;;;;;;;;;;;;;;;26.23;52.19;94958.22;5114679;28;1051;-57
2023/08/31 07:55:41;;;;;;;;;;;;;;;26.54;50.54;94957.56;5114555;28;1104;-55
2023/08/31 07:58:07;;;;;;;;;;;;;;;26.73;50.73;94957.97;5114696;28;1072;-57
2023/08/31 08:00:33;;;;;;;;;;;;;;;26.78;47.79;94960.75;5114127;28;1068;-57
2023/08/31 08:02:59;;;;;;;;;;;;;;;26.54;49.04;94966.66;5114696;28;977;-58
2023/08/31 08:05:25;;;;;;;;;;;;;;;26.28;48.64;94961.00;5114031;28;1238;-58
2023/08/31 08:07:51;;;;;;;;;;;;;;;25.93;50.96;94949.81;5113677;28;1914;-57
2023/08/31 08:10:17;;;;;;;;;;;;;;;25.94;50.09;94948.72;5114340;28;1025;-57
2023/08/31 08:12:44;;;;;;;;;;;;;;;26.58;49.84;94951.31;5114269;28;1637;-56
2023/08/31 08:15:10;;;;;;;;;;;;;;;27.02;47.22;94961.94;5114365;28;1189;-57
2023/08/31 08:17:36;;;;;;;;;;;;;;;27.11;47.83;94969.63;5114105;28;1112;-57
2023/08/31 08:20:03;;;;;;;;;;;;;;;26.73;50.08;94958.81;5114402;28;1059;-57
2023/08/31 08:22:29;;;;;;;;;;;;;;;26.21;49.95;94962.31;5131472;27;1220;-57
2023/08/31 08:24:55;;;;;;;;;;;;;;;26.00;52.78;94956.69;5134561;27;1060;-57
2023/08/31 08:27:21;;;;;;;;;;;;;;;25.79;50.53;94955.69;5133179;27;2529;-57
2023/08/31 08:29:47;;;;;;;;;;;;;;;25.42;48.79;94967.44;5134515;27;1090;-57
2023/08/31 08:32:13;;;;;;;;;;;;;;;25.35;49.20;94955.03;5134583;27;1034;-57
2023/08/31 08:34:39;;;;;;;;;;;;;;;25.44;48.92;94956.19;5134448;27;1158;-57
2023/08/31 08:37:05;;;;;;;;;;;;;;;25.25;51.04;94958.47;5134483;27;1028;-57
2023/08/31 08:39:31;;;;;;;;;;;;;;;25.13;51.40;94953.13;5134498;27;1047;-57
2023/08/31 08:41:58;;;;;;;;;;;;;;;25.14;53.23;94961.09;5134602;27;1051;-57
2023/08/31 08:44:25;;;;;;;;;;;;;;;25.23;52.64;94956.00;5134518;27;1048;-57
2023/08/31 08:46:51;;;;;;;;;;;;;;;25.39;50.79;94956.97;5134630;27;968;-57
2023/08/31 08:49:21;;;;;;;;;;;;;;;25.58;49.02;94954.69;5134101;28;1909;-57
2023/08/31 08:51:47;;;;;;;;;;;;;;;25.57;50.84;94952.22;5134198;28;1063;-57
2023/08/31 08:54:13;;;;;;;;;;;;;;;25.66;50.42;94945.19;5134367;28;953;-57
2023/08/31 08:56:39;;;;;;;;;;;;;;;25.79;50.51;94950.22;5134182;28;912;-56
2023/08/31 08:59:05;;;;;;;;;;;;;;;25.73;51.12;94948.53;5134498;28;1052;-57
2023/08/31 09:01:34;;;;;;;;;;;;;;;25.75;48.97;94948.28;5134054;28;1036;-57
2023/08/31 09:04:00;;;;;;;;;;;;;;;25.67;48.81;94953.13;5135943;27;1065;-57
2023/08/31 09:06:28;;;;;;;;;;;;;;;25.78;48.91;94959.53;5138208;27;1055;-57
2023/08/31 09:08:57;;;;;;;;;;;;;;;25.88;47.94;94954.13;5138119;27;1909;-57
2023/08/31 09:11:24;;;;;;;;;;;;;;;25.71;50.90;94950.72;5138473;27;1047;-57
2023/08/31 09:13:50;;;;;;;;;;;;;;;25.52;51.76;94951.09;5138447;27;976;-57
2023/08/31 09:16:28;;;;;;;;;;;;;;;25.49;49.35;94954.34;5138178;27;1029;-57
2023/08/31 09:18:58;;;;;;;;;;;;;;;25.49;47.67;94950.78;5138173;27;964;-57
2023/08/31 09:21:36;;;;;;;;;;;;;;;25.38;48.11;94954.50;5129549;27;1156;-57
2023/08/31 09:24:05;;;;;;;;;;;;;;;25.57;51.18;94944.81;5117684;28;970;-57
2023/08/31 09:26:37;;;;;;;;;;;;;;;25.62;51.68;94941.31;5117442;28;997;-57
2023/08/31 09:29:04;;;;;;;;;;;;;;;25.64;49.08;94945.44;5099327;28;1902;-57
2023/08/31 09:31:31;;;;;;;;;;;;;;;25.66;48.99;94939.72;5117158;28;1020;-57
2023/08/31 09:33:57;;;;;;;;;;;;;;;26.04;47.84;94946.88;5110682;28;2446;-57
2023/08/31 09:36:23;;;;;;;;;;;;;;;26.30;49.05;94941.56;5096958;28;990;-57
2023/08/31 09:38:49;;;;;;;;;;;;;;;26.82;47.88;94935.25;5100921;27;2478;-57
2023/08/31 09:41:15;;;;;;;;;;;;;;;26.84;45.54;94941.31;5117339;28;1039;-57
2023/08/31 09:43:41;;;;;;;;;;;;;;;26.77;46.33;94937.13;5117176;28;1064;-56
2023/08/31 09:46:08;;;;;;;;;;;;;;;26.63;48.78;94932.16;5117093;28;1023;-56
2023/08/31 09:48:37;;;;;;;;;;;;;;;26.70;46.87;94931.09;5116723;28;1905;-57
2023/08/31 09:51:07;;;;;;;;;;;;;;;26.91;46.06;94924.59;5117091;28;1007;-56
2023/08/31 09:53:35;;;;;;;;;;;;;;;27.43;43.00;94947.50;5117013;28;1056;-57
2023/08/31 09:56:02;;;;;;;;;;;;;;;28.02;42.40;94944.28;5116807;28;1146;-57
2023/08/31 09:58:31;;;;;;;;;;;;;;;28.03;40.70;94951.41;5116751;28;970;-57
2023/08/31 10:00:57;;;;;;;;;;;;;;;28.21;41.22;94940.94;5116688;28;1016;-56
2023/08/31 10:03:24;;;;;;;;;;;;;;;28.56;39.06;94936.50;5116767;28;970;-57
2023/08/31 10:05:50;;;;;;;;;;;;;;;28.58;35.85;94943.34;5124803;27;1202;-58
2023/08/31 10:08:17;;;;;;;;;;;;;;;27.96;38.70;94942.63;5137228;27;1902;-58
2023/08/31 10:10:43;;;;;;;;;;;;;;;27.50;40.15;94934.34;5137514;27;1001;-58
2023/08/31 10:13:10;;;;;;;;;;;;;;;27.60;40.35;94933.53;5137157;27;977;-58
2023/08/31 10:15:37;;;;;;;;;;;;;;;27.92;39.67;94924.22;5136834;27;1048;-58
2023/08/31 10:18:04;;;;;;;;;;;;;;;28.06;38.89;94930.81;5137044;27;1059;-58
2023/08/31 10:20:34;;;;;;;;;;;;;;;28.23;40.70;94914.84;5136870;27;1157;-58
2023/08/31 10:23:00;;;;;;;;;;;;;;;28.45;40.26;94916.41;5137148;27;971;-58
2023/08/31 10:25:45;;;;;;;;;;;;;;;28.37;39.65;94920.56;5136979;27;1052;-57
2023/08/31 10:28:22;;;;;;;;;;;;;;;28.09;41.25;94912.94;5136493;27;1909;-58
2023/08/31 10:31:03;;;;;;;;;;;;;;;27.72;41.73;94908.56;5137204;27;1060;-58
2023/08/31 10:33:52;;;;;;;;;;;;;;;27.74;42.18;94911.84;5136817;27;983;-57
2023/08/31 10:36:19;;;;;;;;;;;;;;;27.53;42.67;94905.53;5125918;27;1303;-57
2023/08/31 10:38:57;;;;;;;;;;;;;;;27.22;42.50;94908.19;5136552;27;1031;-58
2023/08/31 10:41:24;;;;;;;;;;;;;;;27.12;42.97;94910.94;5136703;27;977;-58
2023/08/31 10:43:57;;;;;;;;;;;;;;;26.98;41.79;94916.13;5136821;27;1043;-58
2023/08/31 10:46:32;;;;;;;;;;;;;;;27.04;43.88;94915.84;5136401;27;1039;-57
2023/08/31 10:49:00;;;;;;;;;;;;;;;27.55;43.35;94908.84;5135881;27;2563;-58
2023/08/31 10:51:27;;;;;;;;;;;;;;;28.04;41.56;94911.03;5136939;27;2888;-58
2023/08/31 10:54:04;;;;;;;;;;;;;;;27.77;41.08;94922.28;5156974;27;1033;-58
2023/08/31 10:56:30;;;;;;;;;;;;;;;27.38;41.44;94920.06;5157072;27;1044;-58
2023/08/31 10:58:57;;;;;;;;;;;;;;;27.30;41.73;94924.19;5156558;27;1052;-57
2023/08/31 11:01:42;;;;;;;;;;;;;;;27.32;41.54;94921.13;5156856;27;1062;-57
2023/08/31 11:04:11;;;;;;;;;;;;;;;27.01;43.05;94919.13;5147723;27;2487;-58
2023/08/31 11:06:37;;;;;;;;;;;;;;;26.98;44.67;94918.88;5121109;27;1247;-58
2023/08/31 11:09:04;;;;;;;;;;;;;;;27.07;43.67;94926.28;5115648;28;1905;-57
2023/08/31 11:11:37;;;;;;;;;;;;;;;26.97;42.30;94926.25;5115235;28;1123;-58
2023/08/31 11:14:03;;;;;;;;;;;;;;;26.86;42.41;94925.41;5115419;28;982;-58
2023/08/31 11:16:30;;;;;;;;;;;;;;;26.75;42.09;94925.63;5115104;28;1073;-57
2023/08/31 11:18:56;;;;;;;;;;;;;;;26.70;42.72;94931.09;5115408;28;1056;-57
2023/08/31 11:21:22;;;;;;;;;;;;;;;26.58;43.34;94923.03;5114130;28;2596;-58
2023/08/31 11:23:48;;;;;;;;;;;;;;;26.55;44.07;94920.88;5115248;28;1049;-57
2023/08/31 11:26:14;;;;;;;;;;;;;;;26.55;44.57;94921.69;5114769;28;1088;-58
2023/08/31 11:28:43;;;;;;;;;;;;;;;26.54;43.80;94931.00;5114973;28;1905;-58
2023/08/31 11:31:09;;;;;;;;;;;;;;;26.73;44.28;94925.06;5114894;28;1092;-58
2023/08/31 11:33:37;;;;;;;;;;;;;;;26.71;46.50;94913.53;5115224;28;1008;-57
2023/08/31 11:36:03;;;;;;;;;;;;;;;26.79;43.85;94921.28;5114844;28;1036;-58
2023/08/31 11:38:29;;;;;;;;;;;;;;;26.98;45.19;94913.38;5114618;28;1045;-58
2023/08/31 11:40:56;;;;;;;;;;;;;;;26.94;44.05;94915.84;5114864;28;969;-58
2023/08/31 11:43:22;;;;;;;;;;;;;;;26.98;44.37;94916.94;5114747;28;969;-58
2023/08/31 11:45:48;;;;;;;;;;;;;;;26.97;44.75;94912.53;5114980;28;996;-58
2023/08/31 11:48:14;;;;;;;;;;;;;;;27.05;43.37;94919.41;5114466;28;1902;-58
2023/08/31 11:50:41;;;;;;;;;;;;;;;27.05;42.13;94922.16;5114729;28;970;-58
2023/08/31 11:53:07;;;;;;;;;;;;;;;27.06;42.70;94921.88;5114546;28;1103;-58
2023/08/31 11:55:33;;;;;;;;;;;;;;;27.12;40.43;94927.41;5114700;28;965;-58
2023/08/31 11:57:59;;;;;;;;;;;;;;;27.11;45.64;94898.28;5114404;28;1032;-58
2023/08/31 12:00:25;;;;;;;;;;;;;;;26.94;44.56;94899.38;5114318;28;997;-58
2023/08/31 12:03:01;;;;;;;;;;;;;;;26.69;43.33;94908.31;5114600;28;1041;-58
2023/08/31 12:05:28;;;;;;;;;;;;;;;26.51;45.54;94895.06;5119131;27;1650;-58
2023/08/31 12:07:54;;;;;;;;;;;;;;;26.43;45.93;94889.00;5137542;27;2624;-58
2023/08/31 12:10:20;;;;;;;;;;;;;;;26.50;44.83;94891.50;5155492;27;1031;-57
2023/08/31 12:12:46;;;;;;;;;;;;;;;26.53;45.87;94888.22;5155709;27;961;-58
2023/08/31 12:15:12;;;;;;;;;;;;;;;26.59;45.53;94887.19;5137042;27;1035;-58
2023/08/31 12:17:44;;;;;;;;;;;;;;;26.65;44.57;94896.25;5155379;27;1060;-58
2023/08/31 12:20:12;;;;;;;;;;;;;;;26.67;41.99;94900.38;5142602;27;2476;-58
2023/08/31 12:22:38;;;;;;;;;;;;;;;26.71;42.01;94892.41;5134654;27;1166;-58
2023/08/31 12:25:05;;;;;;;;;;;;;;;26.74;43.00;94894.63;5134855;27;1142;-58
2023/08/31 12:27:31;;;;;;;;;;;;;;;26.66;47.67;94884.19;5134355;27;1988;-58
2023/08/31 12:29:57;;;;;;;;;;;;;;;26.39;49.82;94882.41;5132944;27;2591;-58
2023/08/31 12:32:24;;;;;;;;;;;;;;;26.09;54.24;94867.47;5134600;27;965;-57
2023/08/31 12:34:50;;;;;;;;;;;;;;;26.02;54.66;94869.59;5134582;27;969;-56
2023/08/31 12:37:16;;;;;;;;;;;;;;;26.06;53.47;94876.19;5134471;27;953;-57
2023/08/31 12:39:44;;;;;;;;;;;;;;;26.04;55.06;94881.13;5133679;27;1049;-57
2023/08/31 12:42:10;;;;;;;;;;;;;;;26.03;53.51;94887.72;5134231;27;1043;-57
2023/08/31 12:44:37;;;;;;;;;;;;;;;26.06;52.30;94880.88;5134570;27;1024;-56
2023/08/31 12:47:04;;;;;;;;;;;;;;;26.06;53.47;94883.59;5134488;27;1067;-56
2023/08/31 12:49:30;;;;;;;;;;;;;;;26.06;54.15;94889.09;5134384;28;1914;-55
2023/08/31 12:51:56;;;;;;;;;;;;;;;25.98;54.15;94882.19;5134502;28;987;-58
2023/08/31 12:54:22;;;;;;;;;;;;;;;25.90;58.62;94874.44;5134150;28;985;-56
2023/08/31 12:56:48;;;;;;;;;;;;;;;25.68;61.27;94885.50;5133110;27;2514;-58
2023/08/31 12:59:14;;;;;;;;;;;;;;;25.61;60.35;94885.75;5134092;28;1134;-59